Time;durP1;ratioP1;P1;durP2;ratioP2;P2;SDS_P1;SDS_P2;PMS_P1;PMS_P2;Temp;Humidity;BMP_temperature;BMP_pressure;BME280_temperature;BME280_humidity;BME280_pressure;Samples;Min_cycle;Max_cycle;Signal;HPM_P1;HPM_P2
2022/10/27 05:06:34;;;;;;;;;20.25;17.25;;;;;;;;6471231;39;9112;-63
2022/10/27 05:12:38;;;;;;;;;21.00;19.00;;;;;;;;6491021;39;8938;-64
2022/10/27 05:47:06;;;;;;;;;22.33;17.67;;;;;;;;6493334;39;9035;-64
2022/10/27 05:53:09;;;;;;;;;20.33;17.67;;;;;;;;6491139;31;9040;-64
2022/10/27 05:59:14;;;;;;;;;23.00;19.33;;;;;;;;6491196;39;8860;-64
2022/10/27 06:05:20;;;;;;;;;20.33;18.33;;;;;;;;6489726;31;8961;-64
2022/10/27 06:11:23;;;;;;;;;22.00;20.33;;;;;;;;6489985;46;8909;-65
2022/10/27 06:17:25;;;;;;;;;22.67;20.00;;;;;;;;6491189;39;8935;-63
2022/10/27 06:23:29;;;;;;;;;25.00;24.67;;;;;;;;6489500;39;8938;-65
2022/10/27 06:29:39;;;;;;;;;21.67;20.00;;;;;;;;6488863;39;8869;-64
2022/10/27 06:35:41;;;;;;;;;19.00;17.67;;;;;;;;6488206;39;8988;-64
2022/10/27 06:41:43;;;;;;;;;24.67;23.67;;;;;;;;6486540;46;9055;-65
2022/10/27 06:47:57;;;;;;;;;22.33;22.33;;;;;;;;6488361;46;8875;-65
2022/10/27 06:54:00;;;;;;;;;21.00;18.00;;;;;;;;6489745;39;8849;-63
2022/10/27 07:00:03;;;;;;;;;27.00;22.33;;;;;;;;6489736;39;8840;-64
2022/10/27 07:06:06;;;;;;;;;48.50;40.50;;;;;;;;6487932;39;8957;-62
2022/10/27 07:12:09;;;;;;;;;23.00;20.00;;;;;;;;6487638;39;8953;-66
2022/10/27 07:18:13;;;;;;;;;26.00;24.50;;;;;;;;6488106;31;8938;-66
2022/10/27 07:24:17;;;;;;;;;24.00;20.67;;;;;;;;6489971;31;8879;-65
2022/10/27 07:30:21;;;;;;;;;21.00;21.00;;;;;;;;6489030;39;8838;-65
2022/10/27 07:36:23;;;;;;;;;22.50;20.00;;;;;;;;6490959;39;8910;-63
2022/10/27 07:42:25;;;;;;;;;32.00;29.67;;;;;;;;6491068;39;8957;-65
2022/10/27 07:48:28;;;;;;;;;51.50;41.75;;;;;;;;6491173;31;8868;-65
2022/10/27 07:54:30;;;;;;;;;25.67;25.67;;;;;;;;6487833;39;8878;-65
2022/10/27 08:00:39;;;;;;;;;26.00;23.33;;;;;;;;6490175;39;8836;-63
2022/10/27 08:06:43;;;;;;;;;25.67;25.67;;;;;;;;6489550;31;8941;-65
2022/10/27 08:12:46;;;;;;;;;21.67;18.00;;;;;;;;6492048;31;8953;-64
2022/10/27 08:18:48;;;;;;;;;26.00;25.67;;;;;;;;6489349;39;10057;-65
2022/10/27 08:24:52;;;;;;;;;87.00;73.25;;;;;;;;6490549;31;8871;-65
2022/10/27 08:30:57;;;;;;;;;22.00;20.67;;;;;;;;6490671;39;8834;-62
2022/10/27 08:37:00;;;;;;;;;44.67;38.67;;;;;;;;6489681;31;8878;-65
2022/10/27 08:43:31;;;;;;;;;21.50;17.00;;;;;;;;6490891;39;8949;-66
2022/10/27 08:49:48;;;;;;;;;33.67;27.33;;;;;;;;6491041;31;8919;-64
2022/10/27 08:55:56;;;;;;;;;29.00;29.00;;;;;;;;6486007;46;8898;-65
2022/10/27 09:02:01;;;;;;;;;24.67;20.33;;;;;;;;6485860;39;8966;-66
2022/10/27 09:08:05;;;;;;;;;21.67;19.67;;;;;;;;6488134;46;8878;-63
2022/10/27 09:14:13;;;;;;;;;16.00;16.00;;;;;;;;6490814;39;8856;-64
2022/10/27 09:20:51;;;;;;;;;28.67;24.00;;;;;;;;6488618;39;8937;-63
2022/10/27 09:26:59;;;;;;;;;19.00;16.00;;;;;;;;6488017;46;8939;-65
2022/10/27 09:33:09;;;;;;;;;21.67;17.67;;;;;;;;6487953;31;8906;-65
2022/10/27 09:39:11;;;;;;;;;16.33;15.33;;;;;;;;6486441;39;8880;-64
2022/10/27 09:45:19;;;;;;;;;25.00;24.00;;;;;;;;6490900;39;9530;-64
2022/10/27 09:51:25;;;;;;;;;74.50;59.75;;;;;;;;6489677;31;8880;-64
2022/10/27 09:57:35;;;;;;;;;32.67;30.00;;;;;;;;6490816;39;8889;-64
2022/10/27 10:03:38;;;;;;;;;18.00;16.00;;;;;;;;6490400;31;8950;-63
2022/10/27 10:09:40;;;;;;;;;19.33;17.00;;;;;;;;6487855;39;8890;-64
2022/10/27 10:15:45;;;;;;;;;15.67;15.67;;;;;;;;6490503;31;8884;-65
2022/10/27 10:21:59;;;;;;;;;21.67;21.67;;;;;;;;6489772;31;8874;-63
2022/10/27 10:28:03;;;;;;;;;37.00;32.67;;;;;;;;6489972;31;8979;-64
2022/10/27 10:34:28;;;;;;;;;66.00;53.33;;;;;;;;6487910;39;8900;-65
2022/10/27 10:40:37;;;;;;;;;11.00;11.00;;;;;;;;6488776;46;8808;-63
2022/10/27 10:46:49;;;;;;;;;15.00;15.00;;;;;;;;6489811;39;9005;-62
2022/10/27 10:52:55;;;;;;;;;32.67;30.67;;;;;;;;6488225;31;8959;-63
2022/10/27 10:59:10;;;;;;;;;21.00;17.00;;;;;;;;6489996;39;8834;-63
2022/10/27 11:05:21;;;;;;;;;9.00;6.75;;;;;;;;6488248;39;8924;-63
2022/10/27 11:11:27;;;;;;;;;10.00;6.33;;;;;;;;6488726;39;8830;-63
2022/10/27 11:17:33;;;;;;;;;10.25;10.25;;;;;;;;6489287;31;8919;-62
2022/10/27 11:24:07;;;;;;;;;7.00;7.00;;;;;;;;6489476;47;8850;-62
2022/10/27 11:30:19;;;;;;;;;15.00;15.00;;;;;;;;6488014;39;8915;-62
2022/10/27 11:36:38;;;;;;;;;11.33;10.00;;;;;;;;6489727;39;9003;-65
2022/10/27 11:42:55;;;;;;;;;24.33;23.00;;;;;;;;6488758;47;8951;-62
2022/10/27 11:49:11;;;;;;;;;18.67;18.67;;;;;;;;6489350;39;8999;-61
2022/10/27 11:55:31;;;;;;;;;5.75;5.75;;;;;;;;6489826;31;8868;-65
2022/10/27 12:02:07;;;;;;;;;8.00;8.00;;;;;;;;6487884;39;9076;-62
2022/10/27 12:08:29;;;;;;;;;7.50;7.50;;;;;;;;6327207;36;10003055;-62
2022/10/27 12:15:16;;;;;;;;;10.50;10.50;;;;;;;;6489521;31;8980;-64
2022/10/27 12:21:25;;;;;;;;;12.25;12.25;;;;;;;;6490296;31;8906;-62
2022/10/27 12:27:34;;;;;;;;;10.00;9.25;;;;;;;;6488452;46;8865;-65
2022/10/27 12:33:41;;;;;;;;;8.50;8.50;;;;;;;;6491659;31;8934;-62
2022/10/27 12:39:52;;;;;;;;;9.25;7.50;;;;;;;;6490442;39;9532;-63
2022/10/27 12:45:57;;;;;;;;;19.25;16.75;;;;;;;;6491910;39;9087;-63
2022/10/27 12:52:18;;;;;;;;;44.00;37.67;;;;;;;;6491164;31;9053;-63
2022/10/27 12:58:33;;;;;;;;;8.50;6.25;;;;;;;;6489702;31;8984;-63
2022/10/27 13:04:54;;;;;;;;;6.00;6.00;;;;;;;;6483935;46;8989;-63
2022/10/27 13:11:20;;;;;;;;;5.75;5.75;;;;;;;;6485709;39;9409;-64
2022/10/27 13:17:44;;;;;;;;;13.67;13.67;;;;;;;;6486795;39;8854;-63
2022/10/27 13:23:55;;;;;;;;;10.67;10.67;;;;;;;;6487205;46;8916;-64
2022/10/27 13:30:25;;;;;;;;;7.00;7.00;;;;;;;;6486151;39;8886;-64
2022/10/27 13:36:29;;;;;;;;;20.00;20.00;;;;;;;;6485212;46;8926;-62
2022/10/27 13:42:31;;;;;;;;;9.00;7.50;;;;;;;;6487473;46;9012;-62
2022/10/27 13:48:33;;;;;;;;;6.00;6.00;;;;;;;;6487385;39;8871;-63
2022/10/27 13:54:51;;;;;;;;;12.33;11.00;;;;;;;;6487277;39;8944;-62
2022/10/27 14:01:18;;;;;;;;;9.25;6.50;;;;;;;;6486753;46;8918;-63
2022/10/27 14:07:21;;;;;;;;;28.00;24.67;;;;;;;;6487480;39;8984;-63
2022/10/27 14:13:46;;;;;;;;;7.00;4.67;;;;;;;;6488321;39;8835;-63
2022/10/27 14:20:02;;;;;;;;;10.00;8.33;;;;;;;;6488902;31;8870;-63
2022/10/27 14:26:42;;;;;;;;;9.00;7.33;;;;;;;;6488384;39;8855;-63
2022/10/27 14:32:46;;;;;;;;;7.67;7.33;;;;;;;;6484054;39;9562;-63
2022/10/27 14:38:53;;;;;;;;;11.00;10.00;;;;;;;;6487947;39;8928;-64
2022/10/27 14:45:16;;;;;;;;;10.33;9.00;;;;;;;;6487086;31;8925;-65
2022/10/27 14:51:18;;;;;;;;;9.33;9.33;;;;;;;;6486425;39;9073;-61
2022/10/27 14:57:36;;;;;;;;;13.33;13.33;;;;;;;;6486445;39;9088;-62
2022/10/27 15:03:38;;;;;;;;;13.67;12.67;;;;;;;;6486522;47;8866;-62
2022/10/27 15:10:00;;;;;;;;;21.33;16.33;;;;;;;;6485993;47;8885;-62
2022/10/27 15:16:10;;;;;;;;;15.00;12.33;;;;;;;;6486323;39;8906;-65
2022/10/27 15:22:17;;;;;;;;;17.00;17.00;;;;;;;;6486500;31;8923;-62
2022/10/27 15:28:29;;;;;;;;;21.00;17.00;;;;;;;;6486792;39;8894;-63
2022/10/27 15:34:36;;;;;;;;;24.33;21.67;;;;;;;;6503428;36;8942;-64
2022/10/27 15:40:43;;;;;;;;;17.67;17.67;;;;;;;;6486313;39;8925;-63
2022/10/27 17:01:30;;;;;;;;;49.67;38.67;;;;;;;;6480582;46;15043;-62
2022/10/27 17:07:35;;;;;;;;;46.33;38.67;;;;;;;;6490607;46;8964;-62
2022/10/27 17:13:37;;;;;;;;;39.67;37.33;;;;;;;;6491494;39;8858;-62
2022/10/27 17:19:40;;;;;;;;;46.00;39.00;;;;;;;;6491338;46;8857;-61
2022/10/27 17:25:46;;;;;;;;;54.00;43.25;;;;;;;;6490419;39;9040;-62
2022/10/27 17:31:49;;;;;;;;;45.75;40.25;;;;;;;;6492207;39;8884;-62
2022/10/27 17:38:00;;;;;;;;;58.00;46.00;;;;;;;;6490767;31;9001;-61
2022/10/27 17:44:05;;;;;;;;;63.75;49.50;;;;;;;;6491774;39;9481;-64
2022/10/27 17:50:07;;;;;;;;;65.25;52.00;;;;;;;;6490062;39;8846;-62
2022/10/27 17:56:12;;;;;;;;;61.75;49.75;;;;;;;;6490496;39;8905;-63
2022/10/27 18:02:15;;;;;;;;;67.00;53.75;;;;;;;;6491152;31;9493;-63
2022/10/27 18:08:17;;;;;;;;;65.75;53.50;;;;;;;;6490477;39;8924;-62
2022/10/27 18:14:22;;;;;;;;;69.75;55.75;;;;;;;;6491470;46;8909;-63
2022/10/27 18:20:25;;;;;;;;;71.00;57.00;;;;;;;;6490554;31;8841;-61
2022/10/27 18:26:30;;;;;;;;;71.75;56.50;;;;;;;;6490748;31;8917;-61
2022/10/27 18:32:32;;;;;;;;;60.75;48.50;;;;;;;;6490049;46;8873;-63
2022/10/27 18:38:34;;;;;;;;;48.25;42.00;;;;;;;;6489623;46;8885;-61
2022/10/27 18:44:36;;;;;;;;;50.50;42.50;;;;;;;;6490517;39;8878;-62
2022/10/27 18:50:40;;;;;;;;;67.00;52.00;;;;;;;;6489492;46;8871;-62
2022/10/27 18:56:45;;;;;;;;;77.75;60.00;;;;;;;;6491200;39;9694;-62
2022/10/27 19:02:50;;;;;;;;;77.00;58.75;;;;;;;;6491214;39;8905;-62
2022/10/27 19:08:54;;;;;;;;;77.00;59.50;;;;;;;;6490170;39;8953;-63
2022/10/27 19:14:56;;;;;;;;;73.80;57.40;;;;;;;;6310447;36;10000816;-63
2022/10/27 19:21:04;;;;;;;;;77.25;60.00;;;;;;;;6491088;31;8989;-62
2022/10/27 19:27:07;;;;;;;;;74.50;57.00;;;;;;;;6492156;46;9052;-62
2022/10/27 19:33:12;;;;;;;;;74.00;57.25;;;;;;;;6491832;39;8912;-61
2022/10/27 19:39:14;;;;;;;;;81.00;60.25;;;;;;;;6491620;39;9364;-62
2022/10/27 19:45:17;;;;;;;;;75.00;59.00;;;;;;;;6492612;31;8888;-62
2022/10/27 19:51:22;;;;;;;;;80.75;63.00;;;;;;;;6491613;31;8882;-62
2022/10/27 19:57:24;;;;;;;;;71.00;55.50;;;;;;;;6492337;31;8885;-62
2022/10/27 20:03:27;;;;;;;;;73.50;56.25;;;;;;;;6491922;31;8890;-61
2022/10/27 20:09:30;;;;;;;;;68.50;53.25;;;;;;;;6492141;39;8861;-63
2022/10/27 20:15:32;;;;;;;;;65.25;53.75;;;;;;;;6492310;39;8814;-62
2022/10/27 20:21:35;;;;;;;;;73.50;59.00;;;;;;;;6492138;39;8997;-63
2022/10/27 20:27:38;;;;;;;;;72.00;58.00;;;;;;;;6491521;31;8823;-61
2022/10/27 20:33:40;;;;;;;;;73.00;58.75;;;;;;;;6491836;31;9023;-62
2022/10/27 20:39:43;;;;;;;;;64.75;52.25;;;;;;;;6491152;39;8947;-62
2022/10/27 20:45:53;;;;;;;;;64.75;51.75;;;;;;;;6492373;39;8916;-61
2022/10/27 20:51:55;;;;;;;;;57.75;47.25;;;;;;;;6491797;39;9006;-61
2022/10/27 20:57:57;;;;;;;;;51.75;40.50;;;;;;;;6490990;46;8902;-61
2022/10/27 21:04:06;;;;;;;;;47.50;40.50;;;;;;;;6491469;31;8891;-62
2022/10/27 21:10:09;;;;;;;;;61.25;49.25;;;;;;;;6490407;31;8913;-63
2022/10/27 21:16:11;;;;;;;;;66.75;51.25;;;;;;;;6489972;31;8871;-62
2022/10/27 21:22:13;;;;;;;;;55.75;45.50;;;;;;;;6490999;39;8858;-64
2022/10/27 21:28:20;;;;;;;;;59.50;48.25;;;;;;;;6489544;46;8855;-63
2022/10/27 21:34:23;;;;;;;;;51.00;43.25;;;;;;;;6491356;31;8866;-63
2022/10/27 21:40:25;;;;;;;;;65.00;51.50;;;;;;;;6489687;46;8962;-61
2022/10/27 21:46:30;;;;;;;;;70.00;54.75;;;;;;;;6491385;39;8858;-61
2022/10/27 21:52:32;;;;;;;;;70.75;55.50;;;;;;;;6491217;39;8906;-63
2022/10/27 21:58:35;;;;;;;;;69.50;55.00;;;;;;;;6490597;46;8934;-60
2022/10/27 22:04:43;;;;;;;;;62.50;51.50;;;;;;;;6491306;39;8848;-62
2022/10/27 22:10:49;;;;;;;;;68.25;54.50;;;;;;;;6491435;31;8834;-62
2022/10/27 22:16:50;;;;;;;;;64.25;50.25;;;;;;;;6490443;39;8910;-62
2022/10/27 22:22:55;;;;;;;;;56.00;45.75;;;;;;;;6491385;39;8854;-62
2022/10/27 22:28:58;;;;;;;;;57.00;45.50;;;;;;;;6490010;39;8971;-62
2022/10/27 22:35:00;;;;;;;;;68.25;52.50;;;;;;;;6491168;46;8822;-62
2022/10/27 22:41:06;;;;;;;;;60.25;50.00;;;;;;;;6490206;46;8922;-62
2022/10/27 22:47:08;;;;;;;;;57.50;46.25;;;;;;;;6490143;39;8969;-62
2022/10/27 22:53:10;;;;;;;;;58.33;49.33;;;;;;;;6490034;46;8887;-61
2022/10/27 22:59:13;;;;;;;;;64.25;51.00;;;;;;;;6490979;39;8917;-63
2022/10/27 23:05:15;;;;;;;;;58.75;48.75;;;;;;;;6491648;39;8864;-62
2022/10/27 23:11:18;;;;;;;;;55.25;45.50;;;;;;;;6490369;39;8920;-62
2022/10/27 23:17:21;;;;;;;;;61.75;49.00;;;;;;;;6490310;39;8856;-62
2022/10/27 23:23:27;;;;;;;;;59.75;49.50;;;;;;;;6489499;39;8850;-62
2022/10/27 23:29:29;;;;;;;;;58.50;48.00;;;;;;;;6488791;47;9014;-62
2022/10/27 23:35:43;;;;;;;;;54.25;46.75;;;;;;;;6489854;47;8945;-62
2022/10/27 23:41:53;;;;;;;;;59.25;48.50;;;;;;;;6489113;39;8962;-62
2022/10/27 23:47:57;;;;;;;;;58.50;48.75;;;;;;;;6489743;39;8906;-62
2022/10/27 23:54:00;;;;;;;;;59.25;45.00;;;;;;;;6489476;31;9557;-62
